Time;durP1;ratioP1;P1;durP2;ratioP2;P2;SDS_P1;SDS_P2;PMS_P1;PMS_P2;Temp;Humidity;BMP_temperature;BMP_pressure;BME280_temperature;BME280_humidity;BME280_pressure;Samples;Min_cycle;Max_cycle;Signal;HPM_P1;HPM_P2
2022/11/29 00:00:57;;;;;;;25.13;14.60;;;4.60;99.90;;;;;;4993717;28;20469;-87
2022/11/29 00:03:23;;;;;;;21.53;13.17;;;4.60;99.90;;;;;;4994355;28;20796;-84
2022/11/29 00:05:50;;;;;;;30.30;15.33;;;4.60;99.90;;;;;;4994041;28;20495;-86
2022/11/29 00:08:16;;;;;;;21.00;13.07;;;4.50;99.90;;;;;;4994192;28;20432;-86
2022/11/29 00:10:42;;;;;;;26.73;14.33;;;4.50;99.90;;;;;;4994741;28;20477;-87
2022/11/29 00:13:07;;;;;;;25.47;14.20;;;4.50;99.90;;;;;;4994524;28;20491;-86
2022/11/29 00:15:37;;;;;;;24.63;14.27;;;4.50;99.90;;;;;;4994022;28;20254;-88
2022/11/29 00:18:04;;;;;;;26.90;12.77;;;4.50;99.90;;;;;;4994510;28;20189;-87
2022/11/29 00:20:30;;;;;;;23.77;12.83;;;4.50;99.90;;;;;;4994327;28;20910;-84
2022/11/29 00:22:55;;;;;;;23.50;12.67;;;4.50;99.90;;;;;;4994294;28;20427;-87
2022/11/29 00:25:21;;;;;;;22.83;13.30;;;4.50;99.90;;;;;;4994770;28;20178;-82
2022/11/29 00:27:47;;;;;;;29.60;12.97;;;4.50;99.90;;;;;;4994102;28;20173;-85
2022/11/29 00:30:13;;;;;;;26.87;13.87;;;4.50;99.90;;;;;;4993748;28;20303;-90
2022/11/29 00:32:38;;;;;;;20.27;12.37;;;4.50;99.90;;;;;;4993995;28;20165;-83
2022/11/29 00:35:04;;;;;;;23.43;13.50;;;4.50;99.90;;;;;;4993490;28;20426;-88
2022/11/29 00:37:33;;;;;;;19.93;12.60;;;4.50;99.90;;;;;;4993575;28;20535;-87
2022/11/29 00:39:58;;;;;;;22.67;14.47;;;4.50;99.90;;;;;;4993728;28;20179;-90
2022/11/29 00:42:24;;;;;;;26.23;12.73;;;4.50;99.90;;;;;;5010264;28;20426;-84
2022/11/29 00:44:49;;;;;;;23.73;13.43;;;4.50;99.90;;;;;;5012863;28;20231;-86
2022/11/29 00:47:15;;;;;;;24.47;13.63;;;4.50;99.90;;;;;;5013209;28;20270;-85
2022/11/29 00:49:40;;;;;;;25.20;13.37;;;4.50;99.90;;;;;;4995740;28;20222;-89
2022/11/29 00:52:06;;;;;;;25.63;12.50;;;4.50;99.90;;;;;;5013016;28;20275;-86
2022/11/29 00:54:34;;;;;;;29.00;15.53;;;4.40;99.90;;;;;;5013096;28;20163;-88
2022/11/29 00:56:59;;;;;;;18.27;10.90;;;4.40;99.90;;;;;;5012966;28;20218;-88
2022/11/29 00:59:25;;;;;;;29.43;16.73;;;4.50;99.90;;;;;;5012882;28;20948;-85
2022/11/29 01:01:50;;;;;;;22.83;14.13;;;4.50;99.90;;;;;;5012934;28;20169;-87
2022/11/29 01:04:16;;;;;;;27.53;15.10;;;4.50;99.90;;;;;;5013031;28;20266;-89
2022/11/29 01:06:42;;;;;;;25.90;14.67;;;4.40;99.90;;;;;;5014610;28;20199;-84
2022/11/29 01:09:07;;;;;;;26.37;14.67;;;4.40;99.90;;;;;;4999225;28;20171;-87
2022/11/29 01:11:33;;;;;;;27.83;13.80;;;4.40;99.90;;;;;;5016636;28;20571;-87
2022/11/29 01:14:03;;;;;;;22.70;13.00;;;4.40;99.90;;;;;;5016410;28;20261;-85
2022/11/29 01:16:31;;;;;;;20.60;13.07;;;4.40;99.90;;;;;;5016655;28;20550;-88
2022/11/29 01:18:56;;;;;;;28.90;15.10;;;4.40;99.90;;;;;;5016377;28;20409;-87
2022/11/29 01:21:23;;;;;;;29.47;15.87;;;4.40;99.90;;;;;;4999005;28;20520;-87
2022/11/29 01:23:50;;;;;;;21.67;13.00;;;4.40;99.90;;;;;;5016361;28;20172;-87
2022/11/29 01:26:20;;;;;;;25.53;13.87;;;4.40;99.90;;;;;;5008440;28;20420;-84
2022/11/29 01:28:48;;;;;;;31.07;17.17;;;4.40;99.90;;;;;;5015533;28;20932;-85
2022/11/29 01:31:24;;;;;;;23.40;13.70;;;4.40;99.90;;;;;;5016019;28;20475;-86
2022/11/29 01:33:59;;;;;;;25.93;14.00;;;4.40;99.90;;;;;;5016485;28;20401;-87
2022/11/29 01:36:33;;;;;;;21.97;12.73;;;4.30;99.90;;;;;;5016415;28;20923;-82
2022/11/29 01:39:00;;;;;;;22.37;14.97;;;4.30;99.90;;;;;;5016567;28;20481;-82
2022/11/29 01:41:28;;;;;;;21.53;14.10;;;4.40;99.90;;;;;;4999107;28;20432;-84
2022/11/29 01:44:07;;;;;;;30.87;14.73;;;4.40;99.90;;;;;;5016201;28;20428;-87
2022/11/29 01:46:35;;;;;;;28.07;17.03;;;4.40;99.90;;;;;;5013187;28;20500;-81
2022/11/29 01:49:08;;;;;;;21.90;13.07;;;4.40;99.90;;;;;;5016089;28;20430;-87
2022/11/29 01:51:38;;;;;;;25.27;16.43;;;4.40;99.90;;;;;;5016328;28;20947;-88
2022/11/29 01:54:06;;;;;;;28.83;15.40;;;4.30;99.90;;;;;;5016444;28;20464;-89
2022/11/29 01:56:33;;;;;;;25.00;14.37;;;4.30;99.90;;;;;;5016038;28;20467;-88
2022/11/29 01:59:03;;;;;;;25.73;15.23;;;4.30;99.90;;;;;;5015777;28;20464;-81
2022/11/29 02:01:43;;;;;;;27.20;14.57;;;4.20;99.90;;;;;;5015478;28;20423;-89
2022/11/29 02:04:09;;;;;;;27.20;16.97;;;4.20;99.90;;;;;;5015879;28;20425;-89
2022/11/29 02:06:38;;;;;;;27.33;15.57;;;4.20;99.90;;;;;;5015940;28;20780;-84
2022/11/29 02:09:04;;;;;;;27.10;14.50;;;4.20;99.90;;;;;;5015541;28;20911;-82
2022/11/29 02:11:58;;;;;;;37.73;16.30;;;4.20;99.90;;;;;;5015692;28;20411;-87
2022/11/29 02:14:38;;;;;;;27.93;16.30;;;4.20;99.90;;;;;;5015622;28;20180;-82
2022/11/29 02:17:23;;;;;;;22.73;14.30;;;4.20;99.90;;;;;;4998544;28;20422;-86
2022/11/29 02:20:05;;;;;;;29.93;14.97;;;4.20;99.90;;;;;;4997847;28;20410;-89
2022/11/29 02:22:54;;;;;;;26.77;14.57;;;4.20;99.90;;;;;;5015617;28;20448;-84
2022/11/29 02:25:43;;;;;;;32.93;15.40;;;4.10;99.90;;;;;;5015422;28;20493;-83
2022/11/29 02:28:47;;;;;;;25.57;14.97;;;4.10;99.90;;;;;;5015516;28;20841;-86
2022/11/29 02:31:40;;;;;;;25.57;15.60;;;4.10;99.90;;;;;;5015582;28;20527;-85
2022/11/29 02:34:13;;;;;;;26.73;15.90;;;4.10;99.90;;;;;;5015367;28;20552;-88
2022/11/29 02:36:54;;;;;;;30.30;16.47;;;4.10;99.90;;;;;;5015353;28;20916;-88
2022/11/29 02:39:44;;;;;;;28.10;15.90;;;4.20;99.90;;;;;;5015280;28;20420;-90
2022/11/29 02:42:54;;;;;;;32.20;16.63;;;4.10;99.90;;;;;;5015295;28;20505;-85
2022/11/29 02:45:47;;;;;;;29.20;17.03;;;4.10;99.90;;;;;;5014789;28;20453;-89
2022/11/29 02:48:16;;;;;;;32.53;17.20;;;4.10;99.90;;;;;;4997834;28;20467;-88
2022/11/29 02:51:03;;;;;;;25.30;14.80;;;4.10;99.90;;;;;;4997564;28;20509;-89
2022/11/29 02:53:38;;;;;;;34.30;18.20;;;4.10;99.90;;;;;;5015218;28;20501;-88
2022/11/29 02:56:23;;;;;;;27.40;17.17;;;4.10;99.90;;;;;;5014747;28;20473;-83
2022/11/29 02:59:03;;;;;;;27.93;16.47;;;4.10;99.90;;;;;;4997005;28;20422;-88
2022/11/29 03:01:40;;;;;;;26.87;15.27;;;4.20;99.90;;;;;;4997566;28;20466;-89
2022/11/29 03:04:30;;;;;;;37.73;16.73;;;4.10;99.90;;;;;;4991539;28;20497;-91
2022/11/29 03:07:06;;;;;;;33.83;15.40;;;4.10;99.90;;;;;;4980315;28;20423;-85
2022/11/29 03:09:42;;;;;;;38.83;19.10;;;4.10;99.90;;;;;;4984856;28;20489;-84
2022/11/29 03:12:13;;;;;;;30.33;16.13;;;4.20;99.90;;;;;;4968909;28;20438;-85
2022/11/29 03:14:56;;;;;;;24.87;16.33;;;4.20;99.90;;;;;;4978068;28;20487;-90
2022/11/29 03:17:41;;;;;;;36.43;18.23;;;4.20;99.90;;;;;;4978702;28;20457;-84
2022/11/29 03:20:43;;;;;;;28.40;16.87;;;4.20;99.90;;;;;;4969378;28;20458;-90
2022/11/29 03:23:36;;;;;;;29.63;15.87;;;4.20;99.90;;;;;;4986825;28;20757;-89
2022/11/29 03:26:09;;;;;;;30.70;15.93;;;4.20;99.90;;;;;;4985716;28;20420;-89
2022/11/29 03:29:14;;;;;;;35.73;19.53;;;4.20;99.90;;;;;;4962702;28;20424;-82
2022/11/29 03:31:57;;;;;;;32.30;16.43;;;4.20;99.90;;;;;;4982889;28;20919;-82
2022/11/29 03:34:41;;;;;;;30.60;15.37;;;4.20;99.90;;;;;;4986244;28;20436;-92
2022/11/29 03:37:15;;;;;;;26.63;16.83;;;4.20;99.90;;;;;;4968044;28;20432;-92
2022/11/29 03:39:49;;;;;;;32.67;17.73;;;4.20;99.90;;;;;;4965966;28;20442;-80
2022/11/29 03:42:25;;;;;;;35.83;18.90;;;4.20;99.90;;;;;;4987921;28;20412;-89
2022/11/29 03:45:22;;;;;;;29.73;17.60;;;4.20;99.90;;;;;;4981549;28;20443;-86
2022/11/29 03:47:56;;;;;;;33.53;16.90;;;4.20;99.90;;;;;;4981045;28;20425;-82
2022/11/29 03:50:28;;;;;;;27.63;16.90;;;4.20;99.90;;;;;;4984080;28;20916;-81
2022/11/29 03:53:09;;;;;;;34.90;19.53;;;4.20;99.90;;;;;;4967300;28;20447;-91
2022/11/29 03:55:49;;;;;;;22.47;16.07;;;4.20;99.90;;;;;;4981307;28;20979;-85
2022/11/29 03:58:38;;;;;;;27.93;18.53;;;4.10;99.90;;;;;;4980732;28;20495;-85
2022/11/29 04:01:42;;;;;;;31.40;16.93;;;4.20;99.90;;;;;;4991243;28;20432;-81
2022/11/29 04:04:52;;;;;;;32.90;16.17;;;4.20;99.90;;;;;;4899765;29;20436;-84
2022/11/29 04:08:00;;;;;;;34.00;15.73;;;4.20;99.90;;;;;;4884679;29;20426;-81
2022/11/29 04:10:46;;;;;;;34.70;17.13;;;4.20;99.90;;;;;;4993853;28;20520;-90
2022/11/29 04:13:31;;;;;;;30.20;19.37;;;4.20;99.90;;;;;;4994016;28;20421;-87
2022/11/29 04:16:26;;;;;;;31.70;17.80;;;4.20;99.90;;;;;;4976716;28;20792;-84
2022/11/29 04:19:27;;;;;;;31.30;18.50;;;4.20;99.90;;;;;;4994328;28;20402;-84
2022/11/29 04:22:02;;;;;;;28.60;15.67;;;4.20;99.90;;;;;;4976516;28;20415;-84
2022/11/29 04:24:46;;;;;;;30.90;18.57;;;4.10;99.90;;;;;;4993869;28;20410;-88
2022/11/29 04:27:45;;;;;;;29.97;16.77;;;4.20;99.90;;;;;;4994055;28;20411;-88
2022/11/29 04:30:23;;;;;;;26.10;16.80;;;4.10;99.90;;;;;;4993558;28;20466;-84
2022/11/29 04:33:24;;;;;;;31.20;18.40;;;4.10;99.90;;;;;;4993852;28;20412;-86
2022/11/29 04:36:08;;;;;;;37.00;20.90;;;4.20;99.90;;;;;;4977083;28;20415;-83
2022/11/29 04:39:01;;;;;;;25.00;16.40;;;4.20;99.90;;;;;;4993906;28;20419;-81
2022/11/29 04:42:06;;;;;;;40.97;17.40;;;4.20;99.90;;;;;;4994776;28;20871;-80
2022/11/29 04:44:51;;;;;;;32.17;18.37;;;4.20;99.90;;;;;;4966211;28;20417;-86
2022/11/29 04:47:43;;;;;;;38.83;19.60;;;4.10;99.90;;;;;;4980284;28;20985;-89
2022/11/29 04:50:15;;;;;;;36.47;19.07;;;4.10;99.90;;;;;;4997333;28;20475;-86
2022/11/29 04:53:07;;;;;;;27.87;17.67;;;4.10;99.90;;;;;;4979828;28;20952;-86
2022/11/29 04:55:51;;;;;;;31.13;17.60;;;4.10;99.90;;;;;;4997217;28;20831;-83
2022/11/29 04:58:36;;;;;;;27.70;16.53;;;4.20;99.90;;;;;;4979635;28;20424;-84
2022/11/29 05:01:24;;;;;;;31.40;17.37;;;4.10;99.90;;;;;;4997469;28;20425;-88
2022/11/29 05:04:12;;;;;;;30.23;17.47;;;4.10;99.90;;;;;;4997348;28;20442;-83
2022/11/29 05:07:01;;;;;;;33.03;18.93;;;4.10;99.90;;;;;;4980251;28;20439;-87
2022/11/29 05:09:34;;;;;;;25.37;16.17;;;4.10;99.90;;;;;;4997693;28;20438;-89
2022/11/29 05:12:12;;;;;;;37.20;18.93;;;4.10;99.90;;;;;;4996900;28;20434;-81
2022/11/29 05:15:00;;;;;;;27.67;17.70;;;4.00;99.90;;;;;;5011831;28;20454;-82
2022/11/29 05:17:47;;;;;;;30.40;17.40;;;4.10;99.90;;;;;;5016994;28;20447;-82
2022/11/29 05:20:31;;;;;;;29.70;19.07;;;4.10;99.90;;;;;;5016270;28;20411;-81
2022/11/29 05:23:17;;;;;;;31.17;16.90;;;4.10;99.90;;;;;;5016624;28;20419;-81
2022/11/29 05:26:01;;;;;;;34.03;17.67;;;4.00;99.90;;;;;;5016564;28;20474;-87
2022/11/29 05:28:45;;;;;;;31.67;19.37;;;4.00;99.90;;;;;;5016181;28;21030;-88
2022/11/29 05:31:20;;;;;;;28.77;16.97;;;4.00;99.90;;;;;;4999141;28;20976;-90
2022/11/29 05:34:04;;;;;;;28.17;15.17;;;4.00;99.90;;;;;;5016511;28;20402;-82
2022/11/29 05:36:54;;;;;;;32.53;17.90;;;4.00;99.90;;;;;;5016473;28;20418;-83
2022/11/29 05:39:28;;;;;;;30.80;17.47;;;3.90;99.90;;;;;;5016109;28;20408;-86
2022/11/29 05:42:15;;;;;;;28.33;17.37;;;3.90;99.90;;;;;;5016519;28;20911;-81
2022/11/29 05:44:52;;;;;;;39.47;20.90;;;3.90;99.90;;;;;;5016013;28;20512;-87
2022/11/29 05:47:37;;;;;;;37.73;17.40;;;3.90;99.90;;;;;;4998474;28;20466;-89
2022/11/29 05:50:27;;;;;;;27.83;17.80;;;4.00;99.90;;;;;;5016269;28;20459;-87
2022/11/29 05:53:02;;;;;;;33.87;18.37;;;4.00;99.90;;;;;;4998660;28;20426;-89
2022/11/29 05:55:55;;;;;;;32.60;17.27;;;3.90;99.90;;;;;;5016432;28;20555;-90
2022/11/29 05:58:48;;;;;;;28.07;17.60;;;4.00;99.90;;;;;;5015901;28;20410;-81
2022/11/29 06:01:23;;;;;;;28.87;17.23;;;4.00;99.90;;;;;;5015852;28;20497;-88
2022/11/29 06:04:19;;;;;;;28.20;17.47;;;4.00;99.90;;;;;;5015673;28;20437;-89
2022/11/29 06:06:56;;;;;;;29.03;17.03;;;3.90;99.90;;;;;;5015791;28;20620;-91
2022/11/29 06:09:47;;;;;;;33.53;18.10;;;4.00;99.90;;;;;;4998698;28;20421;-86
2022/11/29 06:12:18;;;;;;;33.43;19.90;;;4.00;99.90;;;;;;4998546;28;20430;-90
2022/11/29 06:15:17;;;;;;;30.83;20.03;;;4.00;99.90;;;;;;5015598;28;20412;-90
2022/11/29 06:18:21;;;;;;;25.87;17.40;;;4.00;99.90;;;;;;5015911;28;20450;-83
2022/11/29 06:20:53;;;;;;;35.80;18.97;;;4.00;99.90;;;;;;5015793;28;20422;-85
2022/11/29 06:23:47;;;;;;;31.37;18.07;;;4.00;99.90;;;;;;4998113;28;20410;-86
2022/11/29 06:27:06;;;;;;;32.20;18.70;;;4.00;99.90;;;;;;5015542;28;20422;-91
2022/11/29 06:29:59;;;;;;;34.80;16.37;;;4.00;99.90;;;;;;4916685;29;20492;-88
2022/11/29 06:32:35;;;;;;;32.20;18.10;;;4.00;99.90;;;;;;5013371;28;20430;-83
2022/11/29 06:35:11;;;;;;;31.07;18.27;;;4.00;99.90;;;;;;5015425;28;20481;-89
2022/11/29 06:37:40;;;;;;;31.70;20.77;;;4.00;99.90;;;;;;4998036;28;20426;-88
2022/11/29 06:40:10;;;;;;;32.77;19.27;;;4.00;99.90;;;;;;5015627;28;20414;-85
2022/11/29 06:42:36;;;;;;;34.27;18.03;;;4.00;99.90;;;;;;5015385;28;20421;-87
2022/11/29 06:45:04;;;;;;;34.37;19.80;;;4.00;99.90;;;;;;5016211;28;20410;-91
2022/11/29 06:47:41;;;;;;;31.00;16.73;;;4.00;99.90;;;;;;5004861;28;20186;-90
2022/11/29 06:50:32;;;;;;;32.43;20.53;;;4.00;99.90;;;;;;5018411;28;20592;-82
2022/11/29 06:53:02;;;;;;;32.30;18.67;;;3.90;99.90;;;;;;5017362;28;20421;-85
2022/11/29 06:55:55;;;;;;;34.23;19.00;;;4.00;99.90;;;;;;5016105;28;20537;-93
2022/11/29 06:58:47;;;;;;;33.50;18.63;;;3.90;99.90;;;;;;5014643;28;20918;-85
2022/11/29 07:01:36;;;;;;;30.43;17.10;;;4.00;99.90;;;;;;5014993;28;20425;-88
2022/11/29 07:04:05;;;;;;;32.60;18.70;;;3.90;99.90;;;;;;4996307;28;20423;-81
2022/11/29 07:06:33;;;;;;;32.27;17.80;;;3.90;99.90;;;;;;5015009;28;20429;-88
2022/11/29 07:09:07;;;;;;;28.70;16.07;;;4.00;99.90;;;;;;5014595;28;20410;-82
2022/11/29 07:11:33;;;;;;;29.80;17.33;;;3.90;99.90;;;;;;5014353;28;20822;-82
2022/11/29 07:13:58;;;;;;;34.40;20.23;;;3.90;99.90;;;;;;5013987;28;20427;-82
2022/11/29 07:16:49;;;;;;;29.20;18.57;;;4.00;99.90;;;;;;5014851;28;20187;-90
2022/11/29 07:19:44;;;;;;;31.90;16.40;;;4.00;99.90;;;;;;4997133;28;20721;-89
2022/11/29 07:22:32;;;;;;;32.03;19.50;;;4.00;99.90;;;;;;4997157;28;20977;-89
2022/11/29 07:25:15;;;;;;;32.87;17.90;;;4.00;99.90;;;;;;5014601;28;20415;-89
2022/11/29 07:27:55;;;;;;;37.27;20.50;;;4.00;99.90;;;;;;4997176;28;20989;-90
2022/11/29 07:30:44;;;;;;;29.60;17.83;;;4.00;99.90;;;;;;5014376;28;20457;-90
2022/11/29 07:33:54;;;;;;;32.00;20.20;;;4.00;99.90;;;;;;4996877;28;20466;-85
2022/11/29 07:36:35;;;;;;;32.37;16.40;;;4.00;99.90;;;;;;4915211;29;21003;-87
2022/11/29 07:39:15;;;;;;;34.60;17.77;;;4.10;99.90;;;;;;4915294;29;20419;-86
2022/11/29 07:41:46;;;;;;;31.47;19.73;;;4.00;99.90;;;;;;4984971;28;20416;-87
2022/11/29 07:44:12;;;;;;;32.43;20.00;;;4.10;99.90;;;;;;5014053;28;20461;-84
2022/11/29 07:46:38;;;;;;;28.60;18.13;;;4.10;99.90;;;;;;4996234;28;20803;-83
2022/11/29 07:49:04;;;;;;;24.67;17.17;;;4.10;99.90;;;;;;4996145;28;20644;-89
2022/11/29 07:51:30;;;;;;;33.07;18.87;;;4.10;99.90;;;;;;5014206;28;20210;-89
2022/11/29 07:53:56;;;;;;;35.57;18.80;;;4.10;99.90;;;;;;5014359;28;20913;-87
2022/11/29 07:56:21;;;;;;;31.37;18.73;;;4.10;99.90;;;;;;5014010;28;20223;-87
2022/11/29 07:58:47;;;;;;;34.40;18.13;;;4.10;99.90;;;;;;5013667;28;20171;-88
2022/11/29 08:01:12;;;;;;;28.20;18.00;;;4.10;99.90;;;;;;4996534;28;20170;-89
2022/11/29 08:03:40;;;;;;;28.80;18.87;;;4.10;99.90;;;;;;5014117;28;20272;-85
2022/11/29 08:06:05;;;;;;;42.77;19.97;;;4.10;99.90;;;;;;5013911;28;20167;-83
2022/11/29 08:08:31;;;;;;;37.90;23.30;;;4.20;99.90;;;;;;5014046;28;20769;-88
2022/11/29 08:10:56;;;;;;;33.80;19.30;;;4.10;99.90;;;;;;5013661;28;20204;-82
2022/11/29 08:13:22;;;;;;;33.20;18.90;;;4.20;99.90;;;;;;5012911;28;20177;-82
2022/11/29 08:15:48;;;;;;;32.57;19.47;;;4.20;99.90;;;;;;5014937;28;20635;-83
2022/11/29 08:18:15;;;;;;;30.73;18.37;;;4.20;99.90;;;;;;4999552;28;20665;-82
2022/11/29 08:20:41;;;;;;;36.40;20.00;;;4.20;99.90;;;;;;5017790;28;20174;-88
2022/11/29 08:23:12;;;;;;;35.13;20.73;;;4.20;99.90;;;;;;5017934;28;20402;-88
2022/11/29 08:25:38;;;;;;;30.50;19.03;;;4.20;99.90;;;;;;5017714;28;20765;-82
2022/11/29 08:28:04;;;;;;;28.00;16.50;;;4.20;99.90;;;;;;5016942;28;20902;-82
2022/11/29 08:30:30;;;;;;;31.50;20.37;;;4.30;99.90;;;;;;5017203;28;20591;-83
2022/11/29 08:32:56;;;;;;;37.53;19.60;;;4.20;99.90;;;;;;5017337;28;20439;-82
2022/11/29 08:35:22;;;;;;;43.43;21.53;;;4.30;99.90;;;;;;5017258;28;20421;-82
2022/11/29 08:37:48;;;;;;;29.07;19.27;;;4.30;99.90;;;;;;5017168;28;20167;-82
2022/11/29 08:40:15;;;;;;;27.40;18.33;;;4.30;99.90;;;;;;5017133;28;20798;-81
2022/11/29 08:42:40;;;;;;;29.13;18.57;;;4.30;99.90;;;;;;5017149;28;20922;-81
2022/11/29 08:45:08;;;;;;;37.53;20.87;;;4.30;99.90;;;;;;5016546;28;20414;-82
2022/11/29 08:47:36;;;;;;;29.83;18.37;;;4.30;99.90;;;;;;5016940;28;20200;-85
2022/11/29 08:50:06;;;;;;;35.10;19.40;;;4.30;99.90;;;;;;5016935;28;20810;-82
2022/11/29 08:55:25;;;;;;;33.70;17.60;;;4.40;99.90;;;;;;5017094;28;20463;-81
2022/11/29 08:57:53;;;;;;;31.10;20.00;;;4.40;99.90;;;;;;4998878;28;20511;-81
2022/11/29 09:00:20;;;;;;;27.67;15.33;;;4.40;99.90;;;;;;5016486;28;20434;-87
2022/11/29 09:02:46;;;;;;;31.47;18.20;;;4.40;99.90;;;;;;5016899;28;20951;-81
2022/11/29 09:05:11;;;;;;;33.83;18.27;;;4.40;99.90;;;;;;5017152;28;20498;-92
2022/11/29 09:07:37;;;;;;;32.10;19.07;;;4.40;99.90;;;;;;4996287;28;20419;-88
2022/11/29 09:10:06;;;;;;;30.20;18.67;;;4.40;99.90;;;;;;4986046;28;20203;-89
2022/11/29 09:12:36;;;;;;;31.97;20.03;;;4.40;99.90;;;;;;4986169;28;20457;-89
2022/11/29 09:15:03;;;;;;;30.77;20.20;;;4.40;99.90;;;;;;4983886;28;20414;-89
2022/11/29 09:17:32;;;;;;;27.60;17.43;;;4.40;99.90;;;;;;4994677;28;20428;-89
2022/11/29 09:19:58;;;;;;;37.27;21.57;;;4.40;99.90;;;;;;4973255;28;20828;-88
2022/11/29 09:22:23;;;;;;;33.63;20.00;;;4.50;99.90;;;;;;4990284;28;20431;-89
2022/11/29 09:24:49;;;;;;;32.40;19.50;;;4.50;99.90;;;;;;4971832;28;20170;-89
2022/11/29 09:27:14;;;;;;;30.70;18.20;;;4.50;99.90;;;;;;4986622;28;20177;-84
2022/11/29 09:29:39;;;;;;;25.53;16.10;;;4.60;99.90;;;;;;4968411;28;20188;-85
2022/11/29 09:32:05;;;;;;;31.53;16.60;;;4.60;99.90;;;;;;4984108;28;20189;-84
2022/11/29 09:34:31;;;;;;;31.17;18.50;;;4.60;99.90;;;;;;4966925;28;20182;-84
2022/11/29 09:36:56;;;;;;;31.53;18.20;;;4.60;99.90;;;;;;4968740;28;20168;-83
2022/11/29 09:39:22;;;;;;;32.63;19.97;;;4.70;99.90;;;;;;4986408;28;20223;-84
2022/11/29 09:42:12;;;;;;;27.57;17.30;;;4.70;99.90;;;;;;4985741;28;20182;-83
2022/11/29 09:44:50;;;;;;;33.60;20.20;;;4.70;99.90;;;;;;4984013;28;20185;-83
2022/11/29 09:47:31;;;;;;;29.00;19.50;;;4.70;99.90;;;;;;4966577;28;20412;-83
2022/11/29 09:50:30;;;;;;;32.87;18.90;;;4.70;99.90;;;;;;4983925;28;20460;-84
2022/11/29 09:53:31;;;;;;;30.10;17.90;;;4.70;99.90;;;;;;4986167;28;20452;-83
2022/11/29 09:56:13;;;;;;;34.43;19.53;;;4.70;99.90;;;;;;4966165;28;20464;-84
2022/11/29 09:58:59;;;;;;;29.43;19.20;;;4.70;99.90;;;;;;4983568;28;20417;-83
2022/11/29 10:01:31;;;;;;;33.23;20.60;;;4.70;99.90;;;;;;4984985;28;20439;-84
2022/11/29 10:04:09;;;;;;;31.23;18.80;;;4.70;99.90;;;;;;4965994;28;20417;-84
2022/11/29 10:06:43;;;;;;;36.33;20.00;;;4.80;99.90;;;;;;4968431;28;20837;-83
2022/11/29 10:09:39;;;;;;;36.50;17.90;;;4.80;99.90;;;;;;4985092;28;20479;-84
2022/11/29 10:12:17;;;;;;;27.10;18.30;;;4.80;99.90;;;;;;4971949;28;20454;-84
2022/11/29 10:15:04;;;;;;;30.83;19.00;;;4.90;99.90;;;;;;4965052;28;20423;-84
2022/11/29 10:17:48;;;;;;;30.60;18.50;;;4.90;99.90;;;;;;4984922;28;20487;-84
2022/11/29 10:20:23;;;;;;;34.60;20.27;;;4.90;99.90;;;;;;4982657;28;20444;-85
2022/11/29 10:23:12;;;;;;;34.40;17.77;;;4.80;99.90;;;;;;4983574;28;20782;-84
2022/11/29 10:25:45;;;;;;;35.50;20.13;;;4.80;99.90;;;;;;4983019;28;20407;-84
2022/11/29 10:28:15;;;;;;;35.80;18.67;;;4.80;99.90;;;;;;4982960;28;20466;-84
2022/11/29 10:30:42;;;;;;;32.03;19.40;;;4.80;99.90;;;;;;4983291;28;20496;-85
2022/11/29 10:33:19;;;;;;;29.50;18.43;;;4.90;99.90;;;;;;4991761;28;20490;-86
2022/11/29 10:35:46;;;;;;;34.50;19.70;;;4.80;99.90;;;;;;4994866;28;20407;-84
2022/11/29 10:38:12;;;;;;;31.67;19.87;;;5.00;99.90;;;;;;4994475;28;20415;-84
2022/11/29 10:40:42;;;;;;;37.37;21.37;;;4.90;99.90;;;;;;4994202;28;20500;-84
2022/11/29 10:43:08;;;;;;;33.77;20.00;;;4.90;99.90;;;;;;4994459;28;20445;-84
2022/11/29 10:45:49;;;;;;;34.83;19.03;;;4.90;99.90;;;;;;4994738;28;20817;-83
2022/11/29 10:48:23;;;;;;;32.37;19.77;;;4.90;99.90;;;;;;4994864;28;20173;-85
2022/11/29 10:50:51;;;;;;;34.23;22.40;;;4.90;99.90;;;;;;4977222;28;20861;-86
2022/11/29 10:53:21;;;;;;;34.10;19.80;;;4.90;99.90;;;;;;4977251;28;20424;-84
2022/11/29 10:56:12;;;;;;;36.63;21.50;;;4.90;99.90;;;;;;4994061;28;20957;-83
2022/11/29 10:58:54;;;;;;;35.37;20.80;;;4.90;99.90;;;;;;4994184;28;20413;-84
2022/11/29 11:01:25;;;;;;;35.20;20.77;;;5.00;99.90;;;;;;4994454;28;20462;-84
2022/11/29 11:03:55;;;;;;;44.03;23.27;;;4.90;99.90;;;;;;4976802;28;20425;-84
2022/11/29 11:06:25;;;;;;;31.77;20.50;;;4.90;99.90;;;;;;4993991;28;20792;-83
2022/11/29 11:08:53;;;;;;;31.70;20.27;;;5.00;99.90;;;;;;4976886;28;20423;-84
2022/11/29 11:11:30;;;;;;;30.80;20.13;;;5.00;99.90;;;;;;4994178;28;20519;-89
2022/11/29 11:13:58;;;;;;;36.90;20.77;;;5.00;99.90;;;;;;4977663;28;20432;-92
2022/11/29 11:16:30;;;;;;;40.43;22.37;;;5.00;99.90;;;;;;4983176;28;20433;-92
2022/11/29 11:18:56;;;;;;;36.57;20.60;;;5.00;99.90;;;;;;4981458;28;20447;-85
2022/11/29 11:21:24;;;;;;;34.63;19.07;;;5.10;99.90;;;;;;4977508;28;20904;-84
2022/11/29 11:23:53;;;;;;;34.70;19.47;;;5.00;99.90;;;;;;4994474;28;20495;-87
2022/11/29 11:26:19;;;;;;;33.67;21.20;;;5.00;99.90;;;;;;4977801;28;20426;-85
2022/11/29 11:28:59;;;;;;;30.83;20.60;;;5.10;99.90;;;;;;4987477;28;20449;-89
2022/11/29 11:31:34;;;;;;;32.80;19.43;;;5.10;99.90;;;;;;5014854;28;20474;-90
2022/11/29 11:34:45;;;;;;;36.00;19.70;;;5.10;99.90;;;;;;5013139;28;21032;-86
2022/11/29 11:37:13;;;;;;;35.13;20.03;;;5.00;99.90;;;;;;4991217;28;20502;-93
2022/11/29 11:39:39;;;;;;;33.60;20.80;;;5.10;99.90;;;;;;4997859;28;20431;-93
2022/11/29 11:44:53;;;;;;;37.70;21.27;;;5.20;99.90;;;;;;5013813;28;20421;-83
2022/11/29 11:47:31;;;;;;;33.00;19.20;;;5.20;99.90;;;;;;5013742;28;20418;-88
2022/11/29 11:50:02;;;;;;;34.93;19.63;;;5.30;99.90;;;;;;4996101;28;20822;-86
2022/11/29 11:52:47;;;;;;;31.80;19.97;;;5.20;99.90;;;;;;4997137;28;20895;-84
2022/11/29 11:55:41;;;;;;;34.07;21.00;;;5.20;99.90;;;;;;5016289;28;20454;-83
2022/11/29 11:58:28;;;;;;;31.80;19.63;;;5.30;99.90;;;;;;5015217;28;20459;-86
2022/11/29 12:00:56;;;;;;;30.33;19.27;;;5.30;99.90;;;;;;4996256;28;20839;-86
2022/11/29 12:03:46;;;;;;;42.80;22.73;;;5.30;99.90;;;;;;5013520;28;20749;-83
2022/11/29 12:06:38;;;;;;;33.60;20.40;;;5.20;99.90;;;;;;5011587;28;20417;-83
2022/11/29 12:09:18;;;;;;;33.37;19.00;;;5.20;99.90;;;;;;4980978;28;20446;-84
2022/11/29 12:11:51;;;;;;;42.27;22.57;;;5.30;99.90;;;;;;5026380;28;20505;-85
2022/11/29 12:14:33;;;;;;;38.20;20.60;;;5.30;99.90;;;;;;5026909;28;20412;-83
2022/11/29 12:17:08;;;;;;;30.07;18.70;;;5.30;99.90;;;;;;5029379;28;20410;-84
2022/11/29 12:19:46;;;;;;;33.20;20.30;;;5.30;99.90;;;;;;5005872;28;20850;-86
2022/11/29 12:22:18;;;;;;;34.83;21.53;;;5.40;99.90;;;;;;5013417;28;20451;-85
2022/11/29 12:25:05;;;;;;;38.27;20.73;;;5.30;99.90;;;;;;5011329;28;20507;-86
2022/11/29 12:27:31;;;;;;;34.93;19.50;;;5.30;99.90;;;;;;5012723;28;20859;-84
2022/11/29 12:29:56;;;;;;;25.10;18.50;;;5.30;99.90;;;;;;5012866;28;20451;-83
2022/11/29 12:32:28;;;;;;;36.53;21.67;;;5.30;99.90;;;;;;5017466;28;20238;-86
2022/11/29 12:35:25;;;;;;;35.10;17.83;;;5.30;99.90;;;;;;5018711;28;20173;-86
2022/11/29 12:38:21;;;;;;;36.30;20.87;;;5.40;99.90;;;;;;5016650;28;20498;-89
2022/11/29 12:41:24;;;;;;;30.37;19.60;;;5.40;99.90;;;;;;5014219;28;20714;-84
2022/11/29 12:44:09;;;;;;;36.50;21.43;;;5.40;99.90;;;;;;4999179;28;20507;-82
2022/11/29 12:46:36;;;;;;;36.47;21.37;;;5.40;99.90;;;;;;4992980;28;20505;-85
2022/11/29 12:49:11;;;;;;;30.17;19.33;;;5.40;99.90;;;;;;4973878;28;20429;-85
2022/11/29 12:52:00;;;;;;;31.43;19.10;;;5.30;99.90;;;;;;4958786;28;20549;-85
2022/11/29 12:54:42;;;;;;;34.10;20.63;;;5.30;99.90;;;;;;4989322;28;20414;-82
2022/11/29 12:57:52;;;;;;;38.13;21.40;;;5.30;99.90;;;;;;4957105;28;20528;-87
2022/11/29 13:00:29;;;;;;;36.07;19.37;;;5.20;99.90;;;;;;5232664;23;22512;-91
2022/11/29 13:02:58;;;;;;;30.27;19.40;;;5.20;99.90;;;;;;4991474;28;20452;-93
2022/11/29 13:05:33;;;;;;;43.60;22.33;;;5.20;99.90;;;;;;5017112;28;20419;-91
2022/11/29 13:08:55;;;;;;;39.27;21.03;;;5.20;99.90;;;;;;5019892;28;20426;-87
2022/11/29 13:11:30;;;;;;;38.37;23.47;;;5.10;99.90;;;;;;4974912;28;20492;-87
2022/11/29 13:14:04;;;;;;;37.53;21.90;;;5.20;99.90;;;;;;4993707;28;20427;-91
2022/11/29 13:16:39;;;;;;;35.57;20.00;;;5.20;99.90;;;;;;4980196;28;20426;-89
2022/11/29 13:19:11;;;;;;;37.80;22.10;;;5.20;99.90;;;;;;4973765;28;20581;-92
2022/11/29 13:21:57;;;;;;;42.57;22.83;;;5.20;99.90;;;;;;4993027;28;20435;-93
2022/11/29 13:24:31;;;;;;;33.13;20.47;;;5.10;99.90;;;;;;4978126;28;20499;-91
2022/11/29 13:27:00;;;;;;;36.27;20.07;;;5.10;99.90;;;;;;4994254;28;20812;-89
2022/11/29 13:29:25;;;;;;;36.90;22.67;;;5.10;99.90;;;;;;5002417;28;20767;-87
2022/11/29 13:31:51;;;;;;;40.07;21.77;;;5.10;99.90;;;;;;5015951;28;20479;-81